Time;durP1;ratioP1;P1;durP2;ratioP2;P2;SDS_P1;SDS_P2;PMS_P1;PMS_P2;Temp;Humidity;BMP_temperature;BMP_pressure;BME280_temperature;BME280_humidity;BME280_pressure;Samples;Min_cycle;Max_cycle;Signal;HPM_P1;HPM_P2
2021/04/24 00:00:24;;;;;;;12.02;7.40;;;3.40;87.10;;;;;;5074929;28;20085;-74
2021/04/24 00:02:52;;;;;;;11.48;6.78;;;3.40;87.00;;;;;;5102045;28;20090;-75
2021/04/24 00:05:20;;;;;;;10.93;6.55;;;3.30;86.90;;;;;;5073174;28;20079;-75
2021/04/24 00:07:46;;;;;;;7.93;5.43;;;3.30;86.70;;;;;;5095281;28;20071;-75
2021/04/24 00:10:13;;;;;;;8.48;5.38;;;3.20;86.00;;;;;;5106697;28;20113;-74
2021/04/24 00:12:39;;;;;;;6.80;5.38;;;3.10;86.10;;;;;;5102892;28;20088;-74
2021/04/24 00:15:11;;;;;;;9.65;5.93;;;3.10;86.10;;;;;;5096519;28;20043;-74
2021/04/24 00:17:36;;;;;;;10.23;6.82;;;3.10;86.30;;;;;;5094654;28;20098;-73
2021/04/24 00:20:05;;;;;;;9.50;6.35;;;3.00;86.70;;;;;;5085957;28;20405;-74
2021/04/24 00:22:31;;;;;;;9.93;6.93;;;3.00;86.60;;;;;;5084811;28;20393;-75
2021/04/24 00:24:57;;;;;;;11.50;7.53;;;3.00;86.30;;;;;;5089910;28;20048;-75
2021/04/24 00:27:22;;;;;;;14.07;8.07;;;3.00;87.20;;;;;;5091710;28;20043;-75
2021/04/24 00:29:49;;;;;;;10.90;6.50;;;3.00;87.10;;;;;;5099516;28;20481;-75
2021/04/24 00:32:14;;;;;;;11.45;7.55;;;3.00;87.30;;;;;;5099506;28;20044;-75
2021/04/24 00:34:40;;;;;;;14.35;8.57;;;3.00;87.40;;;;;;5098914;28;20045;-75
2021/04/24 00:37:05;;;;;;;11.88;7.57;;;2.90;87.40;;;;;;5105738;28;20039;-75
2021/04/24 00:39:31;;;;;;;11.27;8.23;;;3.00;87.80;;;;;;5102110;28;20078;-74
2021/04/24 00:41:57;;;;;;;12.45;7.57;;;2.90;87.80;;;;;;5104617;28;20168;-74
2021/04/24 00:44:23;;;;;;;12.80;7.03;;;2.80;87.70;;;;;;5111337;28;20100;-75
2021/04/24 00:46:49;;;;;;;12.90;7.78;;;2.80;87.70;;;;;;5092768;28;20062;-74
2021/04/24 00:49:14;;;;;;;11.05;6.63;;;2.80;88.00;;;;;;5106201;28;20067;-75
2021/04/24 00:51:40;;;;;;;11.00;7.32;;;2.70;88.40;;;;;;5098561;28;20481;-74
2021/04/24 00:54:06;;;;;;;9.57;6.90;;;2.80;88.30;;;;;;5103450;28;20795;-74
2021/04/24 00:56:33;;;;;;;11.48;6.70;;;2.80;87.70;;;;;;5101057;28;20544;-74
2021/04/24 00:58:59;;;;;;;10.93;7.40;;;2.80;87.70;;;;;;5089047;28;20036;-75
2021/04/24 01:01:24;;;;;;;11.88;7.28;;;2.70;87.30;;;;;;5088438;28;20032;-74
2021/04/24 01:03:50;;;;;;;11.77;7.28;;;2.80;87.90;;;;;;5109819;28;20031;-74
2021/04/24 01:06:16;;;;;;;11.25;7.10;;;2.80;87.60;;;;;;5101615;28;20089;-74
2021/04/24 01:08:42;;;;;;;12.60;7.40;;;2.80;87.60;;;;;;5093602;28;20113;-74
2021/04/24 01:11:07;;;;;;;16.88;7.68;;;2.70;87.40;;;;;;5088256;28;20080;-74
2021/04/24 01:13:33;;;;;;;11.27;6.70;;;2.70;87.70;;;;;;5087067;28;20467;-74
2021/04/24 01:15:59;;;;;;;10.02;6.88;;;2.70;88.10;;;;;;5102113;28;20040;-74
2021/04/24 01:18:25;;;;;;;7.55;5.68;;;2.60;87.70;;;;;;5087144;28;20040;-75
2021/04/24 01:20:52;;;;;;;5.85;4.57;;;2.60;87.80;;;;;;5088981;28;20088;-74
2021/04/24 01:23:19;;;;;;;7.65;4.45;;;2.60;87.90;;;;;;5089134;28;20055;-74
2021/04/24 01:25:45;;;;;;;6.47;4.30;;;2.50;87.80;;;;;;5088853;28;20028;-74
2021/04/24 01:28:10;;;;;;;6.53;4.55;;;2.50;87.60;;;;;;5087658;28;20060;-74
2021/04/24 01:30:40;;;;;;;4.43;3.00;;;2.50;87.90;;;;;;5089268;28;20146;-74
2021/04/24 01:33:09;;;;;;;4.38;3.03;;;2.50;88.30;;;;;;5090053;28;20032;-75
2021/04/24 01:35:35;;;;;;;5.28;3.38;;;2.40;88.20;;;;;;5088967;28;20055;-74
2021/04/24 01:38:02;;;;;;;4.50;3.42;;;2.50;88.10;;;;;;5088771;28;20112;-74
2021/04/24 01:40:28;;;;;;;5.78;3.20;;;2.40;87.70;;;;;;5088011;28;20046;-74
2021/04/24 01:42:54;;;;;;;5.75;3.38;;;2.40;88.10;;;;;;5100165;28;20473;-74
2021/04/24 01:45:22;;;;;;;4.13;2.88;;;2.40;87.90;;;;;;5082536;28;20044;-74
2021/04/24 01:47:48;;;;;;;3.42;2.75;;;2.30;87.60;;;;;;5109211;28;20044;-74
2021/04/24 01:50:20;;;;;;;4.00;3.08;;;2.30;87.80;;;;;;5094092;28;20040;-74
2021/04/24 01:52:47;;;;;;;4.28;2.33;;;2.30;87.90;;;;;;5090367;28;20236;-74
2021/04/24 01:55:16;;;;;;;4.20;2.30;;;2.30;87.90;;;;;;5096566;28;20044;-74
2021/04/24 01:57:44;;;;;;;3.25;2.38;;;2.20;87.90;;;;;;5086999;28;20522;-74
2021/04/24 02:00:13;;;;;;;4.07;2.30;;;2.20;88.00;;;;;;5076380;28;20079;-75
2021/04/24 02:02:39;;;;;;;3.88;2.75;;;2.20;87.70;;;;;;5086154;28;20043;-74
2021/04/24 02:05:11;;;;;;;3.22;2.70;;;2.20;88.10;;;;;;5088281;28;20028;-74
2021/04/24 02:07:37;;;;;;;3.55;2.88;;;2.20;88.10;;;;;;5086306;28;20047;-74
2021/04/24 02:10:10;;;;;;;4.72;2.83;;;2.20;87.90;;;;;;5091401;28;20089;-74
2021/04/24 02:12:36;;;;;;;5.03;3.20;;;2.20;88.00;;;;;;5094120;28;20520;-75
2021/04/24 02:15:05;;;;;;;4.15;3.17;;;2.10;88.00;;;;;;5088865;28;20048;-74
2021/04/24 02:17:30;;;;;;;4.72;3.40;;;2.10;87.90;;;;;;5086432;28;20045;-74
2021/04/24 02:19:56;;;;;;;7.45;3.50;;;2.10;88.10;;;;;;5096217;28;20393;-74
2021/04/24 02:22:22;;;;;;;5.05;3.65;;;2.10;88.30;;;;;;5091944;28;20044;-74
2021/04/24 02:24:57;;;;;;;4.95;3.40;;;2.00;88.80;;;;;;5085829;28;20382;-74
2021/04/24 02:27:24;;;;;;;4.53;3.58;;;2.00;89.10;;;;;;5087791;28;20477;-74
2021/04/24 02:29:51;;;;;;;4.75;3.03;;;2.00;88.60;;;;;;5100112;28;20101;-74
2021/04/24 02:32:20;;;;;;;5.68;3.35;;;2.00;88.80;;;;;;5088488;28;20492;-74
2021/04/24 02:34:46;;;;;;;4.75;3.22;;;2.00;88.90;;;;;;5087037;28;20062;-74
2021/04/24 02:37:16;;;;;;;3.53;2.80;;;2.00;88.80;;;;;;5082891;28;20527;-74
2021/04/24 02:39:44;;;;;;;4.05;2.80;;;2.00;88.60;;;;;;5086219;28;20039;-74
2021/04/24 02:42:14;;;;;;;3.70;2.47;;;2.00;88.60;;;;;;5093520;28;20024;-74
2021/04/24 02:44:40;;;;;;;7.50;3.20;;;2.00;88.40;;;;;;5092594;28;20063;-74
2021/04/24 02:47:07;;;;;;;5.07;3.10;;;1.90;88.10;;;;;;5095647;28;20078;-74
2021/04/24 02:49:33;;;;;;;5.75;2.92;;;1.90;88.60;;;;;;5097582;28;20036;-74
2021/04/24 02:52:00;;;;;;;5.35;3.33;;;1.90;88.50;;;;;;5088481;28;20032;-74
2021/04/24 02:54:26;;;;;;;4.53;3.53;;;1.80;88.40;;;;;;5088758;28;20127;-74
2021/04/24 02:56:52;;;;;;;4.85;3.25;;;1.90;87.90;;;;;;5088109;28;20453;-74
2021/04/24 02:59:18;;;;;;;5.55;3.40;;;1.80;88.00;;;;;;5088479;28;20044;-74
2021/04/24 03:01:45;;;;;;;6.40;3.53;;;1.80;88.80;;;;;;5096318;28;20419;-74
2021/04/24 03:04:12;;;;;;;6.13;3.83;;;1.80;88.60;;;;;;5109447;28;20046;-74
2021/04/24 03:06:38;;;;;;;5.30;4.05;;;1.80;88.60;;;;;;5084063;28;20562;-74
2021/04/24 03:09:04;;;;;;;5.88;4.20;;;1.80;88.30;;;;;;5106825;28;20031;-74
2021/04/24 03:11:31;;;;;;;6.88;4.13;;;1.80;88.40;;;;;;5080373;28;20032;-74
2021/04/24 03:13:57;;;;;;;6.43;4.32;;;1.80;88.30;;;;;;5090916;28;20126;-74
2021/04/24 03:16:23;;;;;;;5.22;3.88;;;1.80;88.90;;;;;;5091376;28;20086;-74
2021/04/24 03:18:49;;;;;;;6.88;4.35;;;1.80;88.90;;;;;;5089940;28;20036;-74
2021/04/24 03:21:15;;;;;;;7.25;4.65;;;1.70;88.50;;;;;;5091953;28;20046;-73
2021/04/24 03:23:41;;;;;;;6.93;4.03;;;1.60;88.50;;;;;;5102071;28;20048;-74
2021/04/24 03:26:06;;;;;;;5.57;4.22;;;1.70;89.00;;;;;;5097875;28;20032;-74
2021/04/24 03:28:32;;;;;;;5.55;3.58;;;1.70;88.80;;;;;;5086537;28;20039;-73
2021/04/24 03:30:58;;;;;;;5.93;3.75;;;1.60;88.50;;;;;;5095698;28;20047;-74
2021/04/24 03:33:24;;;;;;;7.18;3.80;;;1.60;88.70;;;;;;5110405;28;20082;-75
2021/04/24 03:35:50;;;;;;;5.60;3.47;;;1.60;88.80;;;;;;5094691;28;20059;-74
2021/04/24 03:38:16;;;;;;;5.32;3.45;;;1.60;89.00;;;;;;5094325;28;20132;-74
2021/04/24 03:40:41;;;;;;;8.02;3.85;;;1.60;88.80;;;;;;5109714;28;20040;-74
2021/04/24 03:43:07;;;;;;;5.22;3.65;;;1.60;89.00;;;;;;5091013;28;20048;-74
2021/04/24 03:45:34;;;;;;;4.57;3.53;;;1.50;89.90;;;;;;5081587;28;20035;-74
2021/04/24 03:47:59;;;;;;;5.30;3.83;;;1.50;89.50;;;;;;5103731;28;20085;-74
2021/04/24 03:50:26;;;;;;;4.28;3.60;;;1.50;90.00;;;;;;5089866;28;20031;-74
2021/04/24 03:52:53;;;;;;;7.25;3.45;;;1.50;89.30;;;;;;5096859;28;20032;-75
2021/04/24 03:55:20;;;;;;;6.25;4.03;;;1.50;89.20;;;;;;5094264;28;20460;-74
2021/04/24 03:57:47;;;;;;;5.68;3.38;;;1.50;89.60;;;;;;5091635;28;20127;-74
2021/04/24 04:00:15;;;;;;;5.28;3.33;;;1.50;89.00;;;;;;5073088;28;20067;-74
2021/04/24 04:02:44;;;;;;;5.53;3.45;;;1.50;89.40;;;;;;5088685;28;20044;-74
2021/04/24 04:05:11;;;;;;;4.22;3.28;;;1.50;89.90;;;;;;5092318;28;20028;-74
2021/04/24 04:07:37;;;;;;;4.72;3.47;;;1.50;89.80;;;;;;5096161;28;20055;-74
2021/04/24 04:10:03;;;;;;;5.82;3.85;;;1.50;89.60;;;;;;5104135;28;20040;-74
2021/04/24 04:12:28;;;;;;;8.68;4.20;;;1.50;90.10;;;;;;5096799;28;20047;-74
2021/04/24 04:14:54;;;;;;;8.68;4.80;;;1.50;90.00;;;;;;5096809;28;20578;-75
2021/04/24 04:17:19;;;;;;;7.93;5.03;;;1.50;89.90;;;;;;5108053;28;20063;-74
2021/04/24 04:19:45;;;;;;;18.40;5.18;;;1.50;89.80;;;;;;5076515;28;20036;-75
2021/04/24 04:22:11;;;;;;;6.63;4.55;;;1.50;89.80;;;;;;5091590;28;20036;-75
2021/04/24 04:24:36;;;;;;;7.55;5.47;;;1.50;90.00;;;;;;5090405;28;20055;-74
2021/04/24 04:27:02;;;;;;;8.20;4.93;;;1.60;90.10;;;;;;5090507;28;20065;-75
2021/04/24 04:29:28;;;;;;;7.47;5.85;;;1.50;90.10;;;;;;5106944;28;20036;-75
2021/04/24 04:31:54;;;;;;;8.82;5.15;;;1.60;90.10;;;;;;5088501;28;20059;-75
2021/04/24 04:34:20;;;;;;;7.35;5.45;;;1.60;89.90;;;;;;5102031;28;20485;-75
2021/04/24 04:36:45;;;;;;;7.95;5.90;;;1.70;89.90;;;;;;5089002;28;20036;-75
2021/04/24 04:39:11;;;;;;;8.23;5.57;;;1.60;89.40;;;;;;5096867;28;20072;-75
2021/04/24 04:41:37;;;;;;;9.15;6.45;;;1.70;89.80;;;;;;5089108;28;20044;-75
2021/04/24 04:44:03;;;;;;;8.02;5.88;;;1.70;89.50;;;;;;5101581;28;20044;-75
2021/04/24 04:46:28;;;;;;;11.20;6.05;;;1.70;89.40;;;;;;5096541;28;20072;-75
2021/04/24 04:48:54;;;;;;;9.07;5.32;;;1.70;89.50;;;;;;5089914;28;20055;-75
2021/04/24 04:51:20;;;;;;;8.15;4.97;;;1.80;90.00;;;;;;5086305;28;20097;-75
2021/04/24 04:53:45;;;;;;;8.35;5.70;;;1.80;89.20;;;;;;5088220;28;20134;-75
2021/04/24 04:56:12;;;;;;;7.95;5.28;;;1.80;89.10;;;;;;5095915;28;20043;-75
2021/04/24 04:58:37;;;;;;;6.28;4.57;;;1.80;89.30;;;;;;5089686;28;20067;-75
2021/04/24 05:01:03;;;;;;;7.10;4.60;;;1.90;89.10;;;;;;5087543;28;20401;-74
2021/04/24 05:03:28;;;;;;;7.15;4.78;;;2.00;88.90;;;;;;5088741;28;20504;-75
2021/04/24 05:05:54;;;;;;;8.18;5.90;;;2.00;89.10;;;;;;5091371;28;20070;-74
2021/04/24 05:08:20;;;;;;;11.43;5.47;;;2.10;89.10;;;;;;5088839;28;20038;-75
2021/04/24 05:10:45;;;;;;;6.57;4.90;;;2.10;88.90;;;;;;5089983;28;20047;-74
2021/04/24 05:13:11;;;;;;;7.85;5.60;;;2.30;89.30;;;;;;5087094;28;20538;-73
2021/04/24 05:15:37;;;;;;;11.95;7.30;;;2.30;88.80;;;;;;5096561;28;20048;-75
2021/04/24 05:18:02;;;;;;;11.55;7.47;;;2.40;88.60;;;;;;5090864;28;20400;-75
2021/04/24 05:20:28;;;;;;;14.65;8.02;;;2.40;88.40;;;;;;5098305;28;20047;-75
2021/04/24 05:22:54;;;;;;;10.80;6.35;;;2.50;88.40;;;;;;5097164;28;20035;-75
2021/04/24 05:25:19;;;;;;;9.90;6.18;;;2.60;88.70;;;;;;5088676;28;20060;-75
2021/04/24 05:27:46;;;;;;;8.23;5.68;;;2.70;88.40;;;;;;5086059;28;20582;-75
2021/04/24 05:30:17;;;;;;;7.47;5.28;;;2.80;88.20;;;;;;5088444;28;20483;-75
2021/04/24 05:32:43;;;;;;;9.13;6.20;;;2.90;88.20;;;;;;5089769;28;20528;-75
2021/04/24 05:35:11;;;;;;;10.00;6.18;;;2.90;88.70;;;;;;5088558;28;20043;-75
2021/04/24 05:37:36;;;;;;;8.88;5.78;;;2.90;89.20;;;;;;5090748;28;20044;-75
2021/04/24 05:40:04;;;;;;;8.35;5.95;;;3.10;89.40;;;;;;5087320;28;20527;-77
2021/04/24 05:42:30;;;;;;;8.88;5.53;;;3.50;89.10;;;;;;5088043;28;20038;-77
2021/04/24 05:44:56;;;;;;;8.15;5.82;;;4.30;87.30;;;;;;5088686;28;20040;-77
2021/04/24 05:47:21;;;;;;;9.60;5.78;;;5.60;84.40;;;;;;5087493;28;20396;-77
2021/04/24 05:49:47;;;;;;;7.80;6.07;;;6.60;79.50;;;;;;5089324;28;20124;-77
2021/04/24 05:52:13;;;;;;;8.88;6.03;;;7.70;77.10;;;;;;5088743;28;20031;-77
2021/04/24 05:54:39;;;;;;;13.00;7.40;;;8.50;72.50;;;;;;5085889;28;20054;-76
2021/04/24 05:57:05;;;;;;;7.93;6.63;;;9.30;71.40;;;;;;5093995;28;20062;-75
2021/04/24 05:59:31;;;;;;;13.18;7.30;;;9.90;70.10;;;;;;5073762;28;20051;-75
2021/04/24 06:01:56;;;;;;;11.57;7.85;;;10.70;67.90;;;;;;5083769;28;20089;-75
2021/04/24 06:04:24;;;;;;;9.02;7.25;;;11.50;64.40;;;;;;5089669;28;20043;-77
2021/04/24 06:06:50;;;;;;;8.02;6.65;;;11.60;61.60;;;;;;5072321;28;20547;-77
2021/04/24 06:09:15;;;;;;;8.57;6.93;;;12.20;62.90;;;;;;5069074;28;20040;-76
2021/04/24 06:11:41;;;;;;;7.30;6.53;;;12.80;61.10;;;;;;5086818;28;20032;-77
2021/04/24 06:14:07;;;;;;;9.85;7.53;;;13.50;59.70;;;;;;5088785;28;20504;-75
2021/04/24 06:16:32;;;;;;;12.57;7.88;;;13.90;59.90;;;;;;5088499;28;20135;-76
2021/04/24 06:18:58;;;;;;;10.00;6.78;;;14.20;59.50;;;;;;5085797;28;20047;-75
2021/04/24 06:21:24;;;;;;;11.32;7.28;;;14.50;58.70;;;;;;5088683;28;20043;-76
2021/04/24 06:23:50;;;;;;;10.95;6.93;;;14.80;55.60;;;;;;5088430;28;20075;-76
2021/04/24 06:26:16;;;;;;;11.77;7.70;;;14.40;56.50;;;;;;5089080;28;20406;-76
2021/04/24 06:28:41;;;;;;;11.00;7.78;;;14.30;56.10;;;;;;5089074;28;20032;-77
2021/04/24 06:31:07;;;;;;;11.25;7.55;;;14.30;56.40;;;;;;5088286;28;20491;-76
2021/04/24 06:33:33;;;;;;;11.55;8.02;;;13.60;56.60;;;;;;5085742;28;20036;-77
2021/04/24 06:35:59;;;;;;;8.80;6.45;;;14.10;54.80;;;;;;5079115;28;20044;-76
2021/04/24 06:38:24;;;;;;;10.65;7.88;;;15.00;54.50;;;;;;5087901;28;20047;-76
2021/04/24 06:40:51;;;;;;;12.15;7.70;;;15.00;52.20;;;;;;5083287;28;20028;-76
2021/04/24 06:43:16;;;;;;;9.57;6.90;;;14.60;53.50;;;;;;5078092;28;20046;-77
2021/04/24 06:45:42;;;;;;;9.93;6.32;;;14.50;55.40;;;;;;5090143;28;20036;-77
2021/04/24 06:48:08;;;;;;;9.70;7.15;;;15.90;52.80;;;;;;5090306;28;20044;-76
2021/04/24 06:50:35;;;;;;;9.95;7.30;;;16.00;51.50;;;;;;5075322;28;20095;-77
2021/04/24 06:53:01;;;;;;;11.52;7.38;;;14.30;53.60;;;;;;5089322;28;20043;-77
2021/04/24 06:55:27;;;;;;;9.02;6.60;;;13.30;57.20;;;;;;5092905;28;20036;-77
2021/04/24 06:57:53;;;;;;;7.63;6.10;;;12.80;57.50;;;;;;5097957;28;20043;-77
2021/04/24 07:00:19;;;;;;;13.45;6.15;;;14.10;57.10;;;;;;5113155;28;20104;-74
2021/04/24 07:02:45;;;;;;;10.23;5.68;;;15.40;54.70;;;;;;5091063;28;20254;-74
2021/04/24 07:05:14;;;;;;;9.43;5.68;;;16.60;50.30;;;;;;5092609;28;20419;-75
2021/04/24 07:07:41;;;;;;;9.05;5.97;;;16.50;48.40;;;;;;5075631;28;20060;-76
2021/04/24 07:10:08;;;;;;;8.07;5.28;;;16.10;49.70;;;;;;5073875;28;20051;-75
2021/04/24 07:12:35;;;;;;;8.38;5.85;;;15.40;51.60;;;;;;5088007;28;20118;-74
2021/04/24 07:15:01;;;;;;;10.27;4.55;;;14.80;50.60;;;;;;5082300;28;20617;-77
2021/04/24 07:17:26;;;;;;;35.80;6.78;;;14.10;51.80;;;;;;5072323;28;20119;-76
2021/04/24 07:19:53;;;;;;;9.18;4.40;;;14.50;51.70;;;;;;5076867;28;20462;-76
2021/04/24 07:22:18;;;;;;;9.98;3.90;;;15.10;51.10;;;;;;5089478;28;20130;-75
2021/04/24 07:24:46;;;;;;;6.57;3.72;;;13.90;49.60;;;;;;5088041;28;20127;-73
2021/04/24 07:27:13;;;;;;;10.27;3.92;;;11.90;54.10;;;;;;5092461;28;20271;-77
2021/04/24 07:29:39;;;;;;;6.38;3.60;;;11.70;55.70;;;;;;5082330;28;20052;-75
2021/04/24 07:32:05;;;;;;;8.55;3.70;;;12.80;56.30;;;;;;5085125;28;20512;-75
2021/04/24 07:34:31;;;;;;;11.23;4.15;;;14.60;50.10;;;;;;5085272;28;20131;-76
2021/04/24 07:36:57;;;;;;;8.52;3.20;;;15.40;47.50;;;;;;5071988;28;20465;-76
2021/04/24 07:39:23;;;;;;;8.30;3.33;;;13.30;50.00;;;;;;5080772;28;20033;-73
2021/04/24 07:41:49;;;;;;;8.80;3.58;;;12.10;53.50;;;;;;5088967;28;20048;-76
2021/04/24 07:44:14;;;;;;;8.82;3.45;;;11.50;55.40;;;;;;5085362;28;20115;-74
2021/04/24 07:46:40;;;;;;;8.88;3.78;;;11.30;57.40;;;;;;5092053;28;20071;-75
2021/04/24 07:49:06;;;;;;;9.60;4.10;;;11.90;55.90;;;;;;5091842;28;20104;-75
2021/04/24 07:51:32;;;;;;;9.75;4.50;;;11.40;56.20;;;;;;5091784;28;20043;-75
2021/04/24 07:53:57;;;;;;;8.85;4.20;;;10.80;59.30;;;;;;5091290;28;20047;-75
2021/04/24 07:56:23;;;;;;;9.95;3.67;;;11.00;59.30;;;;;;5091276;28;20040;-75
2021/04/24 07:58:49;;;;;;;11.55;4.30;;;11.40;57.90;;;;;;5090763;28;20037;-75
2021/04/24 08:01:14;;;;;;;9.90;4.45;;;10.60;60.30;;;;;;5090249;28;20059;-76
2021/04/24 08:03:41;;;;;;;8.65;3.83;;;11.00;60.30;;;;;;5091091;28;20103;-75
2021/04/24 08:06:06;;;;;;;9.10;4.20;;;11.20;59.00;;;;;;5080133;28;20119;-76
2021/04/24 08:08:32;;;;;;;9.73;3.90;;;11.50;56.90;;;;;;5086872;28;20032;-75
2021/04/24 08:10:57;;;;;;;9.07;3.65;;;11.80;55.40;;;;;;5091554;28;20039;-75
2021/04/24 08:13:25;;;;;;;10.55;3.85;;;11.50;57.40;;;;;;5091359;28;20036;-75
2021/04/24 08:15:50;;;;;;;6.80;3.08;;;11.70;56.90;;;;;;5089397;28;20043;-75
2021/04/24 08:18:16;;;;;;;9.02;3.58;;;11.70;55.70;;;;;;5083743;28;20036;-75
2021/04/24 08:20:41;;;;;;;8.20;3.40;;;11.90;54.90;;;;;;5091088;28;20036;-76
2021/04/24 08:23:07;;;;;;;9.85;4.05;;;11.90;56.00;;;;;;5090754;28;20485;-75
2021/04/24 08:25:33;;;;;;;8.27;3.75;;;11.90;55.40;;;;;;5075795;28;20423;-76
2021/04/24 08:27:59;;;;;;;10.05;3.70;;;12.00;55.60;;;;;;5072126;28;20033;-75
2021/04/24 08:30:26;;;;;;;10.05;3.40;;;12.00;55.50;;;;;;5089643;28;20036;-75
2021/04/24 08:32:52;;;;;;;10.73;4.10;;;12.10;54.90;;;;;;5078190;28;20063;-74
2021/04/24 08:35:18;;;;;;;10.18;3.97;;;11.90;56.00;;;;;;5073241;28;20103;-75
2021/04/24 08:37:45;;;;;;;9.90;3.60;;;10.90;59.60;;;;;;5089081;28;20040;-76
2021/04/24 08:40:13;;;;;;;8.85;3.50;;;11.00;59.70;;;;;;5083855;28;20044;-75
2021/04/24 08:42:40;;;;;;;12.98;4.43;;;11.50;57.80;;;;;;5090239;28;20459;-76
2021/04/24 08:45:18;;;;;;;7.43;2.97;;;11.70;57.20;;;;;;5076594;28;20040;-77
2021/04/24 08:47:49;;;;;;;10.38;3.45;;;11.90;55.40;;;;;;5097331;28;20413;-76
2021/04/24 08:50:22;;;;;;;10.40;3.90;;;12.00;55.80;;;;;;5083283;28;20118;-76
2021/04/24 08:52:49;;;;;;;11.40;3.88;;;12.00;55.20;;;;;;5070543;28;20524;-76
2021/04/24 08:55:17;;;;;;;14.98;4.03;;;12.10;56.70;;;;;;5090528;28;20048;-76
2021/04/24 08:57:44;;;;;;;11.15;3.85;;;12.10;55.80;;;;;;5085281;28;20261;-75
2021/04/24 09:00:10;;;;;;;10.35;3.75;;;11.40;57.70;;;;;;5093367;28;20402;-76
2021/04/24 09:02:40;;;;;;;15.85;4.40;;;11.70;56.50;;;;;;5110622;28;20114;-77
2021/04/24 09:05:07;;;;;;;8.45;3.65;;;11.80;56.50;;;;;;5087742;28;20036;-76
2021/04/24 09:07:33;;;;;;;6.78;3.35;;;11.40;54.30;;;;;;5089015;28;20051;-76
2021/04/24 09:10:00;;;;;;;9.27;3.88;;;11.50;56.10;;;;;;5089091;28;20040;-76
2021/04/24 09:12:39;;;;;;;13.07;4.07;;;11.80;56.50;;;;;;5086005;28;20047;-74
2021/04/24 09:15:07;;;;;;;12.93;4.10;;;11.90;56.40;;;;;;5088463;28;20028;-74
2021/04/24 09:17:53;;;;;;;11.02;2.97;;;12.00;56.20;;;;;;5070139;28;20056;-75
2021/04/24 09:20:21;;;;;;;10.98;3.80;;;11.40;54.20;;;;;;5089001;28;20052;-76
2021/04/24 09:23:06;;;;;;;7.63;2.95;;;11.30;54.30;;;;;;5089068;28;20403;-74
2021/04/24 09:25:37;;;;;;;11.60;3.50;;;11.70;55.00;;;;;;5074421;28;20047;-75
2021/04/24 09:28:05;;;;;;;10.52;3.22;;;11.90;55.20;;;;;;5073310;28;20039;-76
2021/04/24 09:30:33;;;;;;;7.55;3.55;;;12.10;53.50;;;;;;5086626;28;20028;-74
2021/04/24 09:33:11;;;;;;;9.45;3.50;;;11.50;53.60;;;;;;5085658;28;20039;-73
2021/04/24 09:35:52;;;;;;;9.43;2.92;;;11.50;52.90;;;;;;5069374;28;20037;-73
2021/04/24 09:38:21;;;;;;;8.43;3.10;;;11.90;52.90;;;;;;5086823;28;20048;-73
2021/04/24 09:41:15;;;;;;;9.52;3.03;;;12.10;51.10;;;;;;5070054;22;20079;-67
2021/04/24 09:43:58;;;;;;;11.05;3.25;;;12.30;49.90;;;;;;4982277;28;20073;-68
2021/04/24 09:46:52;;;;;;;6.60;2.88;;;12.40;51.90;;;;;;4987726;28;20073;-67
2021/04/24 09:49:30;;;;;;;7.90;3.38;;;12.10;50.90;;;;;;4971180;28;20104;-67
2021/04/24 09:52:04;;;;;;;10.30;3.92;;;11.50;51.30;;;;;;4984940;28;20400;-67
2021/04/24 09:54:45;;;;;;;8.93;2.95;;;11.60;54.20;;;;;;4989008;28;20472;-67
2021/04/24 09:57:20;;;;;;;6.95;2.40;;;11.60;53.20;;;;;;4989459;28;20042;-67
2021/04/24 09:59:57;;;;;;;5.80;2.38;;;12.00;51.50;;;;;;4986836;28;20466;-67
2021/04/24 10:02:33;;;;;;;9.80;2.55;;;11.80;49.00;;;;;;4989351;28;20200;-67
2021/04/24 10:05:16;;;;;;;8.43;2.58;;;11.60;51.20;;;;;;4989229;28;20038;-67
2021/04/24 10:07:45;;;;;;;6.50;2.40;;;11.40;50.50;;;;;;4989458;28;20052;-67
2021/04/24 10:10:39;;;;;;;6.55;2.70;;;11.60;48.60;;;;;;4986440;28;20041;-67
2021/04/24 10:13:08;;;;;;;6.90;1.80;;;11.70;47.80;;;;;;4994017;28;20033;-66
2021/04/24 10:15:38;;;;;;;4.88;1.55;;;11.60;42.50;;;;;;4988860;28;20100;-67
2021/04/24 10:18:06;;;;;;;6.80;1.60;;;11.70;43.70;;;;;;4989190;28;20125;-67
2021/04/24 10:20:36;;;;;;;3.28;1.70;;;12.00;47.50;;;;;;4987832;28;20424;-67
2021/04/24 10:23:03;;;;;;;5.68;1.60;;;11.90;42.10;;;;;;4989421;28;20034;-67
2021/04/24 10:25:30;;;;;;;5.85;1.95;;;12.10;46.60;;;;;;4988892;28;20070;-67
2021/04/24 10:27:57;;;;;;;4.20;1.42;;;11.80;42.70;;;;;;4989158;28;20035;-66
2021/04/24 10:30:24;;;;;;;5.85;1.90;;;11.80;41.60;;;;;;4989484;28;20472;-67
2021/04/24 10:32:53;;;;;;;5.65;1.60;;;11.70;41.20;;;;;;4990800;28;20093;-67
2021/04/24 10:35:19;;;;;;;3.67;1.40;;;11.80;43.10;;;;;;4997179;28;20096;-67
2021/04/24 10:37:50;;;;;;;3.67;1.30;;;11.80;41.20;;;;;;4989118;28;20173;-67
2021/04/24 10:40:18;;;;;;;5.03;1.73;;;11.50;38.40;;;;;;5004050;28;20100;-67
2021/04/24 10:42:49;;;;;;;2.92;1.38;;;11.60;39.60;;;;;;4988726;28;20188;-67
2021/04/24 10:45:33;;;;;;;3.55;1.60;;;11.90;43.70;;;;;;4989102;28;20053;-67
2021/04/24 10:48:00;;;;;;;2.92;1.50;;;12.10;41.40;;;;;;4989140;28;20402;-67
2021/04/24 10:50:46;;;;;;;3.85;1.60;;;12.30;41.30;;;;;;4988053;28;20377;-67
2021/04/24 10:53:22;;;;;;;4.72;1.65;;;12.30;40.10;;;;;;4987799;28;20030;-67
2021/04/24 10:55:49;;;;;;;3.42;1.50;;;12.20;40.60;;;;;;4987746;28;20101;-67
2021/04/24 10:58:20;;;;;;;4.82;1.92;;;12.50;44.40;;;;;;4988616;28;20050;-67
2021/04/24 11:00:54;;;;;;;3.58;1.88;;;12.10;38.20;;;;;;4988414;28;20047;-67
2021/04/24 11:03:41;;;;;;;5.38;1.85;;;12.10;42.00;;;;;;4987880;28;20043;-67
2021/04/24 11:06:07;;;;;;;3.47;1.30;;;12.30;42.60;;;;;;4988044;28;20181;-67
2021/04/24 11:08:33;;;;;;;6.05;1.73;;;12.50;43.50;;;;;;4988492;28;20136;-66
2021/04/24 11:11:12;;;;;;;4.10;1.90;;;12.50;40.40;;;;;;4989000;28;20042;-67
2021/04/24 11:13:41;;;;;;;6.22;1.80;;;12.60;41.70;;;;;;4989089;28;20057;-67
2021/04/24 11:16:09;;;;;;;4.90;2.15;;;12.90;45.60;;;;;;4988848;28;20515;-67
2021/04/24 11:18:37;;;;;;;6.35;2.50;;;12.50;42.20;;;;;;4987829;28;20058;-66
2021/04/24 11:21:08;;;;;;;3.83;1.50;;;11.90;43.60;;;;;;4988380;28;20577;-66
2021/04/24 11:23:34;;;;;;;5.00;2.00;;;11.80;43.10;;;;;;4989030;28;20474;-67
2021/04/24 11:26:04;;;;;;;4.32;1.63;;;12.10;43.50;;;;;;4989108;28;20520;-66
2021/04/24 11:28:31;;;;;;;5.82;1.90;;;12.10;44.70;;;;;;4989203;28;20092;-67
2021/04/24 11:31:05;;;;;;;6.82;2.47;;;12.00;44.50;;;;;;4988698;28;20042;-67
2021/04/24 11:33:45;;;;;;;8.80;2.50;;;12.00;46.50;;;;;;4992411;28;20042;-67
2021/04/24 11:36:21;;;;;;;4.78;2.20;;;12.30;48.00;;;;;;4992528;28;20045;-66
2021/04/24 11:38:57;;;;;;;4.07;1.90;;;12.30;45.10;;;;;;5007418;28;20038;-67
2021/04/24 11:41:30;;;;;;;8.68;2.97;;;12.30;46.40;;;;;;4991404;28;20058;-66
2021/04/24 11:43:57;;;;;;;8.02;2.97;;;12.60;46.60;;;;;;4991602;28;20128;-67
2021/04/24 11:46:34;;;;;;;6.40;2.35;;;12.60;47.30;;;;;;4992042;28;20101;-67
2021/04/24 11:49:10;;;;;;;4.72;1.83;;;12.50;45.80;;;;;;4990985;28;20054;-67
2021/04/24 11:51:59;;;;;;;6.18;1.90;;;12.50;43.20;;;;;;4988057;28;20053;-67
2021/04/24 11:54:33;;;;;;;3.38;1.73;;;12.10;42.60;;;;;;5006790;28;20053;-67
2021/04/24 11:57:08;;;;;;;4.80;1.98;;;11.80;44.60;;;;;;4991504;28;20038;-67
2021/04/24 11:59:36;;;;;;;5.10;1.85;;;11.80;45.70;;;;;;4991413;28;20039;-67
2021/04/24 12:02:22;;;;;;;6.85;2.25;;;11.80;46.80;;;;;;4990362;28;20503;-66
2021/04/24 12:04:52;;;;;;;6.55;2.10;;;11.70;46.30;;;;;;4990942;28;20137;-67
2021/04/24 12:07:18;;;;;;;6.00;2.33;;;11.80;44.10;;;;;;4990536;28;20117;-67
2021/04/24 12:10:01;;;;;;;5.25;1.92;;;11.70;44.60;;;;;;4991279;28;20105;-67
2021/04/24 12:12:31;;;;;;;6.80;2.13;;;11.80;44.30;;;;;;4990477;28;20527;-67
2021/04/24 12:15:08;;;;;;;5.70;1.85;;;11.50;45.40;;;;;;4990032;28;20077;-67
2021/04/24 12:17:35;;;;;;;5.80;2.00;;;11.60;47.20;;;;;;4989664;28;20041;-67
2021/04/24 12:20:01;;;;;;;7.25;2.80;;;11.80;47.70;;;;;;4993737;28;20038;-66
2021/04/24 12:22:26;;;;;;;7.07;2.22;;;11.80;48.70;;;;;;5005180;28;20639;-67
2021/04/24 12:25:07;;;;;;;5.20;2.10;;;11.90;47.50;;;;;;5007217;28;20042;-67
2021/04/24 12:27:37;;;;;;;4.78;2.28;;;12.00;48.30;;;;;;5000082;28;20058;-66
2021/04/24 12:30:35;;;;;;;4.32;1.85;;;11.60;46.30;;;;;;4995277;28;20041;-66
2021/04/24 12:33:07;;;;;;;8.23;2.28;;;11.50;44.40;;;;;;4992031;28;20136;-66
2021/04/24 12:35:38;;;;;;;4.65;2.15;;;11.60;46.70;;;;;;4999630;28;20042;-66
2021/04/24 12:38:22;;;;;;;5.45;1.95;;;11.30;46.20;;;;;;5010984;28;20053;-66
2021/04/24 12:40:50;;;;;;;6.80;2.30;;;11.00;45.60;;;;;;4993624;28;20063;-66
2021/04/24 12:43:26;;;;;;;9.77;2.72;;;11.50;47.60;;;;;;5002256;28;20059;-66
2021/04/24 12:45:57;;;;;;;6.68;2.33;;;11.60;48.50;;;;;;4993640;28;20034;-67
2021/04/24 12:48:34;;;;;;;5.05;2.38;;;11.90;46.90;;;;;;5000745;28;20151;-66
2021/04/24 12:51:00;;;;;;;7.88;2.88;;;11.80;45.60;;;;;;5007640;28;20038;-67
2021/04/24 12:53:40;;;;;;;5.20;2.38;;;11.60;44.20;;;;;;4989988;28;20064;-68